Time;durP1;ratioP1;P1;durP2;ratioP2;P2;SDS_P1;SDS_P2;PMS_P1;PMS_P2;Temp;Humidity;BMP_temperature;BMP_pressure;BME280_temperature;BME280_humidity;BME280_pressure;Samples;Min_cycle;Max_cycle;Signal;HPM_P1;HPM_P2
2021/01/31 00:01:03;;;;;;;6.22;4.85;;;;;;;18.26;47.11;100568.97;5017921;28;20029;-76
2021/01/31 00:03:29;;;;;;;5.43;4.22;;;;;;;18.23;47.20;100571.59;5005120;28;20041;-72
2021/01/31 00:05:58;;;;;;;6.18;5.25;;;;;;;18.25;47.00;100577.69;5016822;28;20029;-76
2021/01/31 00:08:25;;;;;;;7.05;4.35;;;;;;;18.24;46.98;100587.28;5019409;28;20245;-77
2021/01/31 00:10:53;;;;;;;5.88;4.35;;;;;;;18.19;47.34;100571.63;5022855;28;20171;-76
2021/01/31 00:13:20;;;;;;;5.35;4.50;;;;;;;18.23;46.92;100584.69;5000643;28;20042;-76
2021/01/31 00:15:47;;;;;;;5.32;4.82;;;;;;;18.21;46.92;100593.41;5030950;28;20484;-72
2021/01/31 00:18:15;;;;;;;6.03;4.88;;;;;;;18.21;47.02;100595.16;5017422;28;20476;-71
2021/01/31 00:20:44;;;;;;;4.57;3.90;;;;;;;18.17;46.88;100601.31;5016983;28;20124;-72
2021/01/31 00:23:10;;;;;;;4.97;4.05;;;;;;;18.16;46.67;100596.97;5017772;28;20515;-73
2021/01/31 00:25:35;;;;;;;5.10;3.67;;;;;;;18.17;46.70;100601.31;5007541;28;20030;-72
2021/01/31 00:28:01;;;;;;;6.25;4.68;;;;;;;18.18;46.64;100603.03;5002750;28;20033;-71
2021/01/31 00:30:41;;;;;;;5.47;4.93;;;;;;;18.16;46.70;100610.03;4997689;28;20109;-72
2021/01/31 00:33:16;;;;;;;6.43;4.65;;;;;;;18.13;46.65;100613.53;5018918;28;20499;-72
2021/01/31 00:35:42;;;;;;;5.68;4.95;;;;;;;18.12;46.82;100610.94;5013162;28;20029;-72
2021/01/31 00:38:08;;;;;;;5.30;4.30;;;;;;;18.13;46.79;100612.69;5021224;28;20033;-72
2021/01/31 00:40:34;;;;;;;6.57;4.70;;;;;;;18.15;46.63;100616.16;5014831;28;20045;-72
2021/01/31 00:43:00;;;;;;;4.80;4.32;;;;;;;18.11;46.53;100617.06;5021324;28;20022;-71
2021/01/31 00:45:27;;;;;;;5.82;4.72;;;;;;;18.12;46.68;100614.44;5016955;28;20120;-72
2021/01/31 00:47:53;;;;;;;5.30;4.35;;;;;;;18.08;46.59;100617.94;5021565;28;20552;-72
2021/01/31 00:50:26;;;;;;;3.90;3.47;;;;;;;18.10;46.44;100626.66;5027037;28;20112;-72
2021/01/31 00:52:51;;;;;;;5.75;5.22;;;;;;;18.09;46.67;100622.28;5017227;28;20117;-72
2021/01/31 00:55:17;;;;;;;5.30;4.80;;;;;;;18.07;46.62;100631.03;5018594;28;20114;-72
2021/01/31 00:57:43;;;;;;;6.13;4.53;;;;;;;18.07;46.22;100623.19;5013925;28;20021;-72
2021/01/31 01:00:19;;;;;;;6.35;4.45;;;;;;;18.07;46.69;100624.03;5021717;28;20466;-72
2021/01/31 01:02:46;;;;;;;4.60;3.80;;;;;;;18.04;46.61;100626.72;5016200;28;20069;-72
2021/01/31 01:05:13;;;;;;;4.55;3.50;;;;;;;18.06;46.41;100622.31;5012097;28;20029;-72
2021/01/31 01:07:40;;;;;;;5.55;4.07;;;;;;;18.05;46.50;100622.31;5009140;28;20130;-72
2021/01/31 01:10:06;;;;;;;4.38;3.65;;;;;;;18.04;46.47;100626.72;5001575;28;20054;-72
2021/01/31 01:12:33;;;;;;;5.07;4.25;;;;;;;18.03;46.25;100631.94;5028990;28;20025;-72
2021/01/31 01:14:59;;;;;;;5.15;4.00;;;;;;;18.03;46.50;100643.28;5020808;28;20060;-72
2021/01/31 01:17:24;;;;;;;4.90;4.18;;;;;;;18.03;46.17;100637.19;5013091;28;20077;-72
2021/01/31 01:19:49;;;;;;;4.38;3.92;;;;;;;18.02;46.09;100641.53;5003352;28;20037;-72
2021/01/31 01:22:16;;;;;;;6.95;4.05;;;;;;;18.01;46.27;100638.94;5002206;28;20032;-72
2021/01/31 01:24:42;;;;;;;4.57;4.03;;;;;;;17.99;46.50;100643.28;4998138;28;20113;-76
2021/01/31 01:27:07;;;;;;;6.15;3.88;;;;;;;17.97;46.30;100640.69;5013258;28;20034;-76
2021/01/31 01:29:33;;;;;;;4.63;3.65;;;;;;;17.96;46.30;100632.84;5015508;28;20026;-76
2021/01/31 01:31:59;;;;;;;4.55;4.15;;;;;;;17.95;46.25;100624.13;5010825;28;20034;-76
2021/01/31 01:34:25;;;;;;;4.45;3.65;;;;;;;17.97;46.15;100625.00;4992758;28;20060;-76
2021/01/31 01:36:50;;;;;;;5.18;3.50;;;;;;;17.96;45.93;100612.78;4996171;28;20469;-76
2021/01/31 01:39:16;;;;;;;4.47;3.60;;;;;;;17.95;46.31;100607.56;4992317;28;20112;-76
2021/01/31 01:41:44;;;;;;;5.40;4.28;;;;;;;17.92;46.23;100603.22;5018617;28;20440;-76
2021/01/31 01:44:10;;;;;;;4.38;3.95;;;;;;;17.95;46.18;100611.03;5018727;28;20033;-76
2021/01/31 01:46:40;;;;;;;4.47;3.70;;;;;;;17.94;46.37;100608.44;5012187;28;20045;-76
2021/01/31 01:49:30;;;;;;;5.10;4.40;;;;;;;17.94;45.96;100613.66;5013852;28;20025;-76
2021/01/31 01:52:03;;;;;;;4.15;3.67;;;;;;;17.91;46.09;100604.13;5016577;28;20017;-76
2021/01/31 01:54:46;;;;;;;5.03;3.83;;;;;;;17.91;46.01;100603.25;5010730;28;20030;-76
2021/01/31 01:57:22;;;;;;;4.70;4.10;;;;;;;17.90;45.98;100597.16;5019756;28;20025;-76
2021/01/31 01:59:51;;;;;;;4.68;3.80;;;;;;;17.90;45.76;100599.75;5015558;28;20054;-76
2021/01/31 02:02:31;;;;;;;4.63;3.85;;;;;;;17.90;46.34;100594.53;5013315;28;20040;-76
2021/01/31 02:05:01;;;;;;;4.35;3.88;;;;;;;17.90;45.94;100596.28;5014640;28;20547;-76
2021/01/31 02:07:27;;;;;;;4.88;3.95;;;;;;;17.88;45.99;100584.94;5017086;28;20567;-76
2021/01/31 02:09:52;;;;;;;5.70;4.50;;;;;;;17.85;46.05;100584.09;5003873;28;20050;-76
2021/01/31 02:12:21;;;;;;;5.32;4.18;;;;;;;17.84;46.01;100587.56;4987063;28;21008;-76
2021/01/31 02:14:48;;;;;;;4.85;3.70;;;;;;;17.85;45.88;100591.06;5016803;28;20054;-76
2021/01/31 02:17:22;;;;;;;4.15;3.58;;;;;;;17.84;45.76;100595.41;5022782;28;20017;-77
2021/01/31 02:20:03;;;;;;;5.30;4.47;;;;;;;17.84;45.82;100597.16;5022346;28;20026;-76
2021/01/31 02:22:47;;;;;;;5.05;3.83;;;;;;;17.81;45.84;100589.34;5020063;28;20026;-77
2021/01/31 02:25:42;;;;;;;5.30;3.70;;;;;;;17.85;45.85;100601.53;5017656;28;20024;-76
2021/01/31 02:28:32;;;;;;;5.60;4.82;;;;;;;17.83;45.79;100603.28;5016161;28;20025;-77
2021/01/31 02:31:10;;;;;;;4.68;3.40;;;;;;;17.83;45.92;100600.66;5020520;28;20037;-76
2021/01/31 02:34:03;;;;;;;5.53;4.25;;;;;;;17.83;46.03;100598.03;5024432;28;20056;-76
2021/01/31 02:36:51;;;;;;;4.80;3.95;;;;;;;17.82;45.87;100593.69;5017516;28;20079;-77
2021/01/31 02:39:36;;;;;;;4.80;3.92;;;;;;;17.79;45.63;100594.56;5018329;28;20045;-76
2021/01/31 02:42:13;;;;;;;4.93;3.97;;;;;;;17.81;46.24;100589.34;5020348;28;20498;-76
2021/01/31 02:44:43;;;;;;;4.50;4.07;;;;;;;17.82;45.30;100601.53;5035907;28;20375;-76
2021/01/31 02:47:17;;;;;;;4.05;3.42;;;;;;;17.79;45.68;100594.56;5021089;28;20039;-76
2021/01/31 02:49:51;;;;;;;4.80;3.90;;;;;;;17.76;45.84;100586.75;5024756;28;20033;-76
2021/01/31 02:52:25;;;;;;;4.35;3.95;;;;;;;17.75;45.90;100579.78;5020170;28;20041;-76
2021/01/31 02:55:14;;;;;;;5.28;4.28;;;;;;;17.76;45.71;100585.91;5019719;28;20026;-76
2021/01/31 02:57:54;;;;;;;4.32;3.92;;;;;;;17.75;45.81;100579.78;5020194;28;20092;-76
2021/01/31 03:00:24;;;;;;;4.57;3.90;;;;;;;17.75;45.70;100582.41;5018280;28;20087;-76
2021/01/31 03:02:52;;;;;;;5.32;4.30;;;;;;;17.76;45.61;100585.91;5019973;28;20435;-76
2021/01/31 03:05:20;;;;;;;5.43;4.15;;;;;;;17.74;45.42;100582.41;5021489;28;20057;-76
2021/01/31 03:08:02;;;;;;;5.28;4.38;;;;;;;17.72;45.36;100581.56;5027859;28;20025;-76
2021/01/31 03:10:31;;;;;;;4.35;3.58;;;;;;;17.72;45.85;100586.78;5028967;28;20488;-76
2021/01/31 03:13:04;;;;;;;4.43;4.03;;;;;;;17.72;45.36;100589.41;5022094;28;20033;-76
2021/01/31 03:15:36;;;;;;;3.88;3.55;;;;;;;17.67;45.54;100583.31;5022379;28;20479;-76
2021/01/31 03:18:12;;;;;;;5.20;4.55;;;;;;;17.72;45.38;100598.09;5022096;28;20033;-76
2021/01/31 03:20:42;;;;;;;4.97;3.75;;;;;;;17.70;45.24;100597.25;5019927;28;20030;-77
2021/01/31 03:23:16;;;;;;;4.93;4.13;;;;;;;17.69;45.55;100600.72;5019422;28;20025;-77
2021/01/31 03:25:52;;;;;;;5.60;5.00;;;;;;;17.70;44.91;100597.25;5022228;28;20028;-76
2021/01/31 03:28:17;;;;;;;4.68;4.10;;;;;;;17.71;45.50;100605.97;5016281;28;20072;-76
2021/01/31 03:30:42;;;;;;;4.10;3.35;;;;;;;17.67;45.46;100599.00;5001800;28;20057;-76
2021/01/31 03:33:23;;;;;;;4.03;3.63;;;;;;;17.67;45.20;100605.09;5005283;28;20065;-77
2021/01/31 03:35:54;;;;;;;4.75;3.63;;;;;;;17.67;45.25;100605.09;5017921;28;20101;-76
2021/01/31 03:38:30;;;;;;;4.25;3.78;;;;;;;17.61;45.31;100589.44;5019227;28;20034;-76
2021/01/31 03:41:00;;;;;;;4.15;3.45;;;;;;;17.64;45.03;100593.81;5022006;28;20551;-76
2021/01/31 03:43:26;;;;;;;5.68;4.55;;;;;;;17.64;45.38;100596.44;5020652;28;20037;-76
2021/01/31 03:46:11;;;;;;;3.72;3.33;;;;;;;17.63;45.50;100611.25;5021099;28;20448;-76
2021/01/31 03:49:09;;;;;;;4.80;3.90;;;;;;;17.62;45.15;100608.59;5013658;28;20406;-77
2021/01/31 03:51:36;;;;;;;4.63;3.92;;;;;;;17.60;45.24;100602.50;4996362;28;20046;-76
2021/01/31 03:54:03;;;;;;;4.40;3.80;;;;;;;17.62;45.51;100609.47;5021820;28;20165;-76
2021/01/31 03:56:33;;;;;;;4.15;3.63;;;;;;;17.61;45.65;100607.72;5019319;28;20044;-76
2021/01/31 03:59:00;;;;;;;5.15;4.07;;;;;;;17.61;45.44;100609.47;5037576;28;20133;-76
2021/01/31 04:01:27;;;;;;;4.68;3.55;;;;;;;17.57;45.27;100605.13;5019844;28;20033;-76
2021/01/31 04:04:20;;;;;;;4.30;3.90;;;;;;;17.59;45.24;100606.88;5014799;28;20030;-76
2021/01/31 04:06:52;;;;;;;5.07;3.20;;;;;;;17.60;45.45;100603.38;5018939;28;20026;-76
2021/01/31 04:09:20;;;;;;;3.90;3.45;;;;;;;17.59;45.05;100608.59;5024044;28;20160;-76
2021/01/31 04:11:46;;;;;;;4.25;3.63;;;;;;;17.59;45.39;100614.72;5018437;28;20065;-76
2021/01/31 04:14:18;;;;;;;4.35;3.92;;;;;;;17.61;45.39;100619.94;5020955;28;20444;-76
2021/01/31 04:16:48;;;;;;;3.85;3.45;;;;;;;17.59;45.30;100619.06;5022210;28;20017;-77
2021/01/31 04:19:15;;;;;;;4.53;4.10;;;;;;;17.55;45.16;100612.97;5021050;28;20472;-77
2021/01/31 04:21:41;;;;;;;4.13;3.58;;;;;;;17.56;44.92;100619.06;5012995;28;20332;-77
2021/01/31 04:24:07;;;;;;;4.47;3.80;;;;;;;17.56;45.24;100617.31;5016776;28;20025;-77
2021/01/31 04:26:34;;;;;;;5.30;4.10;;;;;;;17.53;44.99;100614.72;5006678;28;20083;-76
2021/01/31 04:28:59;;;;;;;4.75;3.78;;;;;;;17.53;45.21;100613.88;5027537;28;20400;-76
2021/01/31 04:31:30;;;;;;;4.78;3.58;;;;;;;17.52;44.78;100605.16;5016958;28;20029;-76
2021/01/31 04:33:55;;;;;;;4.50;3.58;;;;;;;17.48;45.26;100601.69;5014239;28;20379;-76
2021/01/31 04:36:24;;;;;;;4.22;3.70;;;;;;;17.51;45.36;100603.44;5007764;28;20124;-77
2021/01/31 04:38:50;;;;;;;4.30;3.67;;;;;;;17.52;44.76;100615.63;5016703;28;20045;-77
2021/01/31 04:41:16;;;;;;;5.22;3.60;;;;;;;17.54;44.42;100610.38;5020656;28;20033;-77
2021/01/31 04:43:42;;;;;;;3.40;3.10;;;;;;;17.52;45.02;100602.56;5016648;28;20458;-76
2021/01/31 04:46:14;;;;;;;5.07;4.03;;;;;;;17.52;44.95;100606.91;5006196;28;20088;-77
2021/01/31 04:48:59;;;;;;;4.20;3.63;;;;;;;17.47;44.78;100604.31;5025584;28;20042;-77
2021/01/31 04:51:55;;;;;;;4.70;3.78;;;;;;;17.50;45.11;100614.75;5015814;28;20025;-72
2021/01/31 04:54:39;;;;;;;6.32;3.55;;;;;;;17.49;45.25;100623.47;5016817;28;20024;-72
2021/01/31 04:57:13;;;;;;;4.60;3.65;;;;;;;17.47;45.04;100613.03;5016989;28;20021;-72
2021/01/31 05:00:00;;;;;;;4.82;4.22;;;;;;;17.43;45.27;100607.81;5017813;28;20416;-72
2021/01/31 05:02:31;;;;;;;4.53;3.72;;;;;;;17.41;44.95;100599.97;5008394;28;20034;-72
2021/01/31 05:04:59;;;;;;;3.80;3.45;;;;;;;17.44;45.23;100618.25;5019696;28;20101;-72
2021/01/31 05:07:33;;;;;;;3.80;3.17;;;;;;;17.42;45.06;100608.69;5018153;28;20041;-72
2021/01/31 05:09:59;;;;;;;5.88;4.60;;;;;;;17.41;44.83;100607.81;5016907;28;20032;-72
2021/01/31 05:12:38;;;;;;;4.88;4.22;;;;;;;17.40;45.15;100613.03;4981351;28;20029;-72
2021/01/31 05:15:25;;;;;;;4.50;4.10;;;;;;;17.43;44.95;100605.19;5015187;28;20385;-72
2021/01/31 05:17:54;;;;;;;4.10;3.28;;;;;;;17.39;45.00;100604.34;5012963;28;20050;-72
2021/01/31 05:20:38;;;;;;;3.70;3.40;;;;;;;17.40;44.90;100605.19;5017205;28;20540;-72
2021/01/31 05:23:04;;;;;;;3.45;3.10;;;;;;;17.38;44.83;100604.34;5027753;28;20033;-72
2021/01/31 05:25:35;;;;;;;4.25;3.85;;;;;;;17.41;44.40;100609.53;5017817;28;20037;-72
2021/01/31 05:28:02;;;;;;;4.65;3.70;;;;;;;17.38;44.61;100610.47;5018080;28;20030;-72
2021/01/31 05:30:32;;;;;;;4.78;4.28;;;;;;;17.38;44.54;100610.47;5016843;28;20435;-72
2021/01/31 05:33:15;;;;;;;4.15;3.70;;;;;;;17.31;44.70;100593.03;5020797;28;20025;-72
2021/01/31 05:35:47;;;;;;;4.47;3.83;;;;;;;17.33;44.47;100596.53;5014680;28;20025;-72
2021/01/31 05:38:31;;;;;;;4.35;3.95;;;;;;;17.34;45.11;100595.66;5025000;28;20036;-72
2021/01/31 05:40:57;;;;;;;4.60;3.92;;;;;;;17.35;44.91;100588.69;5008454;28;20448;-72
2021/01/31 05:43:25;;;;;;;4.55;3.78;;;;;;;17.32;45.02;100581.72;4990759;28;20138;-72
2021/01/31 05:45:51;;;;;;;4.40;3.90;;;;;;;17.33;44.68;100591.28;5017366;28;20044;-72
2021/01/31 05:48:22;;;;;;;4.82;3.60;;;;;;;17.35;44.94;100599.13;5011264;28;20395;-72
2021/01/31 05:50:48;;;;;;;4.50;3.72;;;;;;;17.33;44.38;100593.91;5012733;28;20562;-72
2021/01/31 05:53:30;;;;;;;4.00;3.60;;;;;;;17.30;44.86;100591.31;5015559;28;20026;-72
2021/01/31 05:56:23;;;;;;;4.13;3.70;;;;;;;17.33;44.62;100596.53;5014131;28;20420;-72
2021/01/31 05:58:50;;;;;;;4.72;3.63;;;;;;;17.30;44.59;100579.97;5014510;28;20021;-72
2021/01/31 06:01:16;;;;;;;3.67;3.25;;;;;;;17.30;44.69;100583.47;5016411;28;20048;-72
2021/01/31 06:03:42;;;;;;;4.60;3.78;;;;;;;17.29;44.61;100586.06;5016787;28;20112;-72
2021/01/31 06:06:10;;;;;;;3.63;3.28;;;;;;;17.30;45.00;100590.44;5003582;28;20116;-72
2021/01/31 06:08:36;;;;;;;3.83;3.42;;;;;;;17.29;44.62;100588.69;5024032;28;20026;-72
2021/01/31 06:11:05;;;;;;;4.78;3.88;;;;;;;17.26;44.54;100581.75;5019581;28;20120;-72
2021/01/31 06:13:33;;;;;;;3.72;3.22;;;;;;;17.27;44.64;100583.47;5017035;28;20022;-72
2021/01/31 06:16:01;;;;;;;4.38;3.90;;;;;;;17.27;44.70;100579.97;5018301;28;20132;-72
2021/01/31 06:18:26;;;;;;;4.38;3.35;;;;;;;17.27;44.44;100575.63;5016217;28;20030;-72
2021/01/31 06:20:52;;;;;;;4.47;3.50;;;;;;;17.24;44.40;100566.97;5023534;28;20036;-72
2021/01/31 06:23:20;;;;;;;4.30;3.90;;;;;;;17.27;44.03;100575.63;4994327;28;20401;-72
2021/01/31 06:25:45;;;;;;;3.95;3.42;;;;;;;17.25;44.42;100573.91;5020592;28;20053;-72
2021/01/31 06:28:10;;;;;;;5.10;4.32;;;;;;;17.26;44.21;100581.75;4994503;28;20494;-72
2021/01/31 06:30:52;;;;;;;4.20;3.40;;;;;;;17.26;44.52;100584.38;5017814;28;20072;-72
2021/01/31 06:33:18;;;;;;;4.05;3.60;;;;;;;17.24;44.16;100583.50;5017207;28;20614;-72
2021/01/31 06:35:43;;;;;;;4.18;3.63;;;;;;;17.25;44.33;100590.47;4996237;28;20034;-72
2021/01/31 06:38:15;;;;;;;4.07;3.67;;;;;;;17.23;44.51;100588.72;5017111;28;20025;-72
2021/01/31 06:40:48;;;;;;;3.63;3.20;;;;;;;17.23;44.48;100588.72;5017079;28;20025;-72
2021/01/31 06:43:30;;;;;;;3.95;3.47;;;;;;;17.20;45.03;100576.53;5015287;28;20192;-72
2021/01/31 06:46:04;;;;;;;4.15;3.75;;;;;;;17.19;44.34;100581.78;5037028;28;20033;-72
2021/01/31 06:48:32;;;;;;;;;;;;;;;17.21;44.01;100574.78;5021640;28;20037;-72
2021/01/31 06:51:38;;;;;;;5.35;3.83;;;;;;;17.22;44.33;100579.16;5021070;28;19913;-72
2021/01/31 06:54:21;;;;;;;4.88;3.92;;;;;;;17.20;44.52;100573.94;5018341;28;20029;-72
2021/01/31 06:57:09;;;;;;;3.47;2.95;;;;;;;17.20;44.39;100578.28;5039268;28;20025;-73
2021/01/31 07:00:09;;;;;;;3.78;3.38;;;;;;;17.18;44.07;100580.91;5022765;28;20030;-71
2021/01/31 07:03:10;;;;;;;4.25;3.70;;;;;;;17.19;44.30;100584.38;5014861;28;20075;-72
2021/01/31 07:05:59;;;;;;;5.18;4.03;;;;;;;17.19;44.11;100582.63;5019779;28;20021;-72
2021/01/31 07:08:43;;;;;;;4.00;3.28;;;;;;;17.19;43.99;100593.09;5022657;28;20164;-72
2021/01/31 07:11:20;;;;;;;4.50;4.10;;;;;;;17.18;44.15;100591.34;5017066;28;20041;-72
2021/01/31 07:13:52;;;;;;;4.05;3.50;;;;;;;17.22;44.38;100597.44;5018097;28;20551;-74
2021/01/31 07:16:20;;;;;;;3.60;3.22;;;;;;;17.26;43.92;100600.06;5015856;28;20038;-73
2021/01/31 07:19:01;;;;;;;5.78;3.60;;;;;;;17.30;44.77;100606.97;5014182;28;20076;-72
2021/01/31 07:21:37;;;;;;;7.25;4.25;;;;;;;17.39;44.48;100616.56;5016290;28;20440;-72
2021/01/31 07:24:09;;;;;;;3.33;3.00;;;;;;;17.46;44.40;100608.66;5023268;28;20027;-72
2021/01/31 07:26:51;;;;;;;3.72;3.30;;;;;;;17.61;44.17;100619.94;5022138;28;20100;-73
2021/01/31 07:29:24;;;;;;;4.47;3.47;;;;;;;17.59;44.24;100630.41;5025885;28;20079;-73
2021/01/31 07:31:50;;;;;;;4.53;3.83;;;;;;;17.54;44.41;100640.00;5018462;28;20029;-72
2021/01/31 07:34:38;;;;;;;4.35;3.30;;;;;;;17.62;44.21;100643.47;5012292;28;20033;-72
2021/01/31 07:37:10;;;;;;;5.50;2.58;;;;;;;17.71;44.02;100645.19;5019381;28;20053;-72
2021/01/31 07:39:54;;;;;;;3.78;2.80;;;;;;;17.67;44.12;100643.44;5017523;28;20025;-71
2021/01/31 07:42:21;;;;;;;5.22;2.97;;;;;;;17.66;44.40;100649.56;5017009;28;20030;-72
2021/01/31 07:44:50;;;;;;;4.45;3.22;;;;;;;17.75;44.24;100645.19;5020903;28;20025;-72
2021/01/31 07:47:22;;;;;;;4.45;3.25;;;;;;;17.79;44.02;100643.41;5018521;28;20050;-72
2021/01/31 07:49:54;;;;;;;2.78;2.55;;;;;;;17.74;44.05;100639.94;5018906;28;20364;-71
2021/01/31 07:52:20;;;;;;;3.50;3.15;;;;;;;17.75;44.13;100639.06;5014975;28;20033;-72
2021/01/31 07:54:46;;;;;;;6.03;3.42;;;;;;;17.87;44.15;100632.91;5009275;28;20036;-72
2021/01/31 07:57:14;;;;;;;3.35;3.05;;;;;;;17.84;43.93;100637.28;4991534;28;20364;-72
2021/01/31 07:59:40;;;;;;;4.70;3.30;;;;;;;17.75;44.36;100620.78;5023469;28;20045;-71
2021/01/31 08:02:08;;;;;;;3.15;2.78;;;;;;;17.76;44.14;100623.38;5010535;28;20037;-72
2021/01/31 08:04:33;;;;;;;3.90;3.10;;;;;;;17.91;44.29;100634.63;5017192;28;20022;-72
2021/01/31 08:07:01;;;;;;;3.50;3.10;;;;;;;17.85;44.11;100623.31;5013730;28;20112;-72
2021/01/31 08:09:29;;;;;;;3.85;3.08;;;;;;;17.84;44.16;100629.44;5020065;28;20428;-72
2021/01/31 08:12:05;;;;;;;4.18;2.75;;;;;;;17.91;44.26;100637.25;5020558;28;20050;-72
2021/01/31 08:15:10;;;;;;;3.58;2.58;;;;;;;17.98;43.89;100626.72;5016795;28;20510;-73
2021/01/31 08:17:55;;;;;;;3.00;2.70;;;;;;;17.90;44.29;100628.53;5019325;28;20432;-72
2021/01/31 08:20:34;;;;;;;4.15;2.95;;;;;;;17.89;44.28;100625.94;5004683;28;20033;-72
2021/01/31 08:23:25;;;;;;;3.10;2.80;;;;;;;18.00;44.25;100624.97;5023788;28;20040;-72
2021/01/31 08:26:02;;;;;;;4.00;3.50;;;;;;;17.97;43.95;100613.66;5007179;28;20480;-72
2021/01/31 08:28:29;;;;;;;3.17;2.75;;;;;;;17.94;44.29;100624.13;5024648;28;20033;-72
2021/01/31 08:31:11;;;;;;;3.85;3.13;;;;;;;18.04;44.11;100603.16;5020833;28;20026;-72
2021/01/31 08:33:39;;;;;;;2.90;2.60;;;;;;;18.01;44.06;100600.56;5026363;28;20037;-76
2021/01/31 08:36:20;;;;;;;3.00;2.67;;;;;;;18.02;43.95;100598.81;5021762;28;20025;-76
2021/01/31 08:38:57;;;;;;;3.85;3.15;;;;;;;18.01;43.73;100594.44;5023802;28;20036;-76
2021/01/31 08:41:26;;;;;;;8.00;4.30;;;;;;;18.11;43.90;100604.84;5022046;28;20034;-76
2021/01/31 08:43:58;;;;;;;4.38;3.38;;;;;;;18.15;43.89;100597.84;5019832;28;20029;-76
2021/01/31 08:46:31;;;;;;;7.45;4.63;;;;;;;18.15;43.95;100593.47;5018119;28;20025;-77
2021/01/31 08:49:00;;;;;;;5.63;3.83;;;;;;;18.10;43.97;100595.25;5018556;28;20032;-77
2021/01/31 08:51:34;;;;;;;8.18;4.82;;;;;;;18.08;44.59;100585.66;5017469;28;20428;-77
2021/01/31 08:54:16;;;;;;;8.98;4.82;;;;;;;18.10;44.95;100581.28;5021357;28;20025;-73
2021/01/31 08:56:43;;;;;;;8.38;5.07;;;;;;;18.15;44.73;100579.53;5015576;28;20026;-72
2021/01/31 08:59:13;;;;;;;10.40;5.45;;;;;;;18.11;44.84;100580.41;5018659;28;20022;-72
2021/01/31 09:01:41;;;;;;;9.95;4.90;;;;;;;18.12;44.72;100587.38;5020302;28;20022;-71
2021/01/31 09:04:12;;;;;;;9.15;4.95;;;;;;;18.15;45.01;100583.00;5016833;28;20088;-72
2021/01/31 09:06:41;;;;;;;9.48;4.35;;;;;;;18.13;44.75;100584.75;5022392;28;20030;-73
2021/01/31 09:09:13;;;;;;;12.35;4.95;;;;;;;18.08;45.09;100583.91;5021785;28;20026;-73
2021/01/31 09:11:39;;;;;;;7.28;4.97;;;;;;;18.13;45.38;100587.38;5025435;28;20148;-73
2021/01/31 09:14:18;;;;;;;9.88;5.32;;;;;;;18.12;45.20;100577.78;4998248;28;20523;-73
2021/01/31 09:16:44;;;;;;;10.15;4.80;;;;;;;18.15;45.04;100588.25;5017628;28;20025;-73
2021/01/31 09:19:22;;;;;;;8.85;4.28;;;;;;;18.15;45.37;100587.38;4999828;28;20120;-76
2021/01/31 09:21:50;;;;;;;10.25;4.50;;;;;;;18.23;45.08;100592.53;5021390;28;20464;-77
2021/01/31 09:24:19;;;;;;;9.05;6.35;;;;;;;18.19;44.97;100589.06;5014837;28;20044;-74
2021/01/31 09:26:50;;;;;;;14.95;6.05;;;;;;;18.18;45.29;100595.19;5024431;28;20032;-76
2021/01/31 09:29:19;;;;;;;7.60;4.72;;;;;;;18.21;45.48;100596.03;5017811;28;20048;-75
2021/01/31 09:31:51;;;;;;;9.98;4.78;;;;;;;18.23;45.37;100584.69;5024320;28;20025;-74
2021/01/31 09:34:19;;;;;;;7.53;4.30;;;;;;;18.21;45.70;100589.91;5007227;28;20164;-74
2021/01/31 09:36:45;;;;;;;7.50;4.88;;;;;;;18.18;45.72;100582.09;5022361;28;20022;-74
2021/01/31 09:39:11;;;;;;;7.72;4.15;;;;;;;18.21;45.49;100582.94;5003928;28;20116;-74
2021/01/31 09:41:37;;;;;;;6.82;4.38;;;;;;;18.23;45.68;100576.81;4995529;28;20049;-74
2021/01/31 09:44:05;;;;;;;7.38;4.35;;;;;;;18.16;45.98;100578.66;5025236;28;20439;-74
2021/01/31 09:46:34;;;;;;;8.25;4.32;;;;;;;18.19;45.69;100582.09;5006400;28;20054;-75
2021/01/31 09:49:08;;;;;;;5.97;3.78;;;;;;;18.24;46.21;100574.19;5025848;28;20034;-72
2021/01/31 09:51:35;;;;;;;4.88;4.03;;;;;;;18.29;45.67;100571.56;5025709;28;20048;-75
2021/01/31 09:54:19;;;;;;;6.40;3.72;;;;;;;18.27;46.13;100573.31;5024807;28;20498;-73
2021/01/31 09:56:56;;;;;;;7.65;3.75;;;;;;;18.31;45.92;100572.38;5034517;28;20040;-74
2021/01/31 09:59:31;;;;;;;6.30;4.45;;;;;;;18.33;45.75;100562.78;5032181;28;20025;-74
2021/01/31 10:02:08;;;;;;;6.40;4.05;;;;;;;18.26;45.58;100558.50;5022501;28;20060;-73
2021/01/31 10:04:36;;;;;;;13.23;4.20;;;;;;;18.30;45.79;100563.69;5024225;28;20033;-76
2021/01/31 10:07:04;;;;;;;8.27;4.78;;;;;;;18.34;45.79;100559.28;5015951;28;20034;-76
2021/01/31 10:09:32;;;;;;;10.10;4.47;;;;;;;18.33;45.94;100541.84;5018276;28;20029;-74
2021/01/31 10:12:32;;;;;;;4.75;3.75;;;;;;;18.28;45.69;100541.03;5007396;28;20144;-73
2021/01/31 10:15:04;;;;;;;4.25;2.97;;;;;;;18.39;45.59;100541.78;5016140;28;20072;-77
2021/01/31 10:17:30;;;;;;;5.93;4.10;;;;;;;18.43;45.44;100540.91;5022233;28;20034;-77
2021/01/31 10:20:28;;;;;;;7.70;3.47;;;;;;;18.42;45.58;100542.66;5028439;28;20118;-74
2021/01/31 10:23:01;;;;;;;6.10;3.80;;;;;;;18.46;45.80;100538.22;5024710;28;20558;-71
2021/01/31 10:25:27;;;;;;;7.57;3.22;;;;;;;18.47;45.79;100537.34;5021800;28;20030;-76
2021/01/31 10:27:56;;;;;;;9.18;4.05;;;;;;;18.44;46.09;100529.50;5013697;28;20040;-76
2021/01/31 10:30:27;;;;;;;8.57;3.35;;;;;;;18.43;45.96;100525.19;5027256;28;20045;-76
2021/01/31 10:32:53;;;;;;;5.15;3.92;;;;;;;18.50;46.11;100519.84;5024139;28;20056;-72
2021/01/31 10:35:26;;;;;;;4.88;3.58;;;;;;;18.50;46.11;100514.63;5027885;28;20025;-76
2021/01/31 10:37:52;;;;;;;8.20;3.78;;;;;;;18.44;46.23;100512.06;5030956;28;20017;-74
2021/01/31 10:40:18;;;;;;;5.30;3.50;;;;;;;18.45;46.28;100508.56;5028496;28;20029;-75
2021/01/31 10:42:43;;;;;;;6.10;3.85;;;;;;;18.48;46.05;100502.41;5018940;28;20053;-76
2021/01/31 10:45:11;;;;;;;6.22;3.03;;;;;;;18.52;46.13;100509.38;5022562;28;20061;-76
2021/01/31 10:47:37;;;;;;;7.45;3.85;;;;;;;18.46;46.39;100498.94;5018139;28;20579;-72
2021/01/31 10:50:04;;;;;;;5.90;2.65;;;;;;;18.51;46.15;100498.03;5019391;28;20108;-72
2021/01/31 10:52:31;;;;;;;6.57;3.30;;;;;;;18.50;45.97;100477.97;5029027;28;20038;-76
2021/01/31 10:54:56;;;;;;;5.35;3.03;;;;;;;18.52;46.13;100483.19;5032179;28;20369;-75
2021/01/31 10:57:22;;;;;;;8.32;3.13;;;;;;;18.49;46.19;100480.59;5021181;28;20030;-71
2021/01/31 10:59:47;;;;;;;4.00;3.00;;;;;;;18.53;46.15;100475.31;4997676;28;20033;-75
2021/01/31 11:02:12;;;;;;;9.63;3.55;;;;;;;18.52;45.93;100468.34;5018079;28;20732;-75
2021/01/31 11:04:38;;;;;;;5.18;3.13;;;;;;;18.54;46.17;100468.34;4997008;28;20488;-75
2021/01/31 11:07:03;;;;;;;6.15;3.10;;;;;;;18.56;46.21;100462.16;4999673;28;20030;-77
2021/01/31 11:11:03;;;;;;;4.38;2.72;;;;;;;18.72;45.75;100447.19;5044251;27;1556594;-74
2021/01/31 11:13:28;;;;;;;4.22;3.22;;;;;;;18.63;46.12;100451.66;5085997;28;20097;-74
2021/01/31 11:15:57;;;;;;;5.03;3.00;;;;;;;18.62;46.42;100449.94;5072050;28;20475;-76
2021/01/31 11:18:23;;;;;;;5.00;2.85;;;;;;;18.67;46.01;100446.38;5043065;28;20127;-75
2021/01/31 11:20:48;;;;;;;3.25;2.50;;;;;;;18.65;46.03;100437.69;5077993;28;20032;-71
2021/01/31 11:23:16;;;;;;;5.30;3.05;;;;;;;18.64;46.38;100443.81;5068708;28;20035;-71
2021/01/31 11:25:41;;;;;;;4.68;3.22;;;;;;;18.67;46.01;100433.28;5052224;28;20086;-72
2021/01/31 11:28:07;;;;;;;3.50;2.97;;;;;;;18.75;45.75;100431.44;5047435;28;20024;-71
2021/01/31 11:30:32;;;;;;;4.18;2.60;;;;;;;18.70;45.71;100416.66;5051188;28;20048;-76
2021/01/31 11:32:59;;;;;;;3.47;2.80;;;;;;;18.64;45.92;100417.59;5046158;28;20040;-71
2021/01/31 11:35:24;;;;;;;3.75;2.58;;;;;;;18.70;46.05;100427.13;5056954;28;20082;-71
2021/01/31 11:37:52;;;;;;;4.10;3.17;;;;;;;18.69;45.99;100421.06;5058495;28;20493;-71
2021/01/31 11:40:21;;;;;;;5.68;3.08;;;;;;;18.67;46.03;100414.09;5064906;28;20427;-71
2021/01/31 11:42:46;;;;;;;6.00;2.65;;;;;;;18.71;45.94;100407.91;5084698;28;20028;-70
2021/01/31 11:45:13;;;;;;;3.80;2.38;;;;;;;18.73;45.94;100406.13;5058632;28;20043;-71
2021/01/31 11:47:40;;;;;;;4.10;2.85;;;;;;;18.75;46.00;100412.22;5048345;28;20032;-72